Time;durP1;ratioP1;P1;durP2;ratioP2;P2;SDS_P1;SDS_P2;PMS_P1;PMS_P2;Temp;Humidity;BMP_temperature;BMP_pressure;BME280_temperature;BME280_humidity;BME280_pressure;Samples;Min_cycle;Max_cycle;Signal;HPM_P1;HPM_P2
2022/05/16 00:02:02;;;;;;;4.33;3.93;;;;;;;14.91;100.00;96324.06;5074714;27;101908;-63
2022/05/16 00:04:29;;;;;;;4.03;3.73;;;;;;;14.86;100.00;96325.94;5070497;27;105145;-63
2022/05/16 00:06:55;;;;;;;4.87;3.70;;;;;;;14.75;100.00;96324.41;5052878;27;101967;-62
2022/05/16 00:09:24;;;;;;;4.17;3.87;;;;;;;14.75;100.00;96319.06;5052739;27;105087;-63
2022/05/16 00:12:03;;;;;;;3.47;3.27;;;;;;;14.42;100.00;96325.16;5052231;27;106592;-63
2022/05/16 00:14:32;;;;;;;5.87;3.77;;;;;;;14.52;100.00;96333.13;5071113;27;101742;-63
2022/05/16 00:16:59;;;;;;;4.13;3.70;;;;;;;14.37;100.00;96330.53;5035457;27;105980;-63
2022/05/16 00:19:26;;;;;;;4.57;3.43;;;;;;;14.06;100.00;96335.16;5041717;27;105542;-63
2022/05/16 00:21:53;;;;;;;7.97;3.80;;;;;;;14.15;100.00;96340.75;5071286;27;101857;-63
2022/05/16 00:24:26;;;;;;;4.63;3.70;;;;;;;14.23;100.00;96343.69;5055030;27;105187;-63
2022/05/16 00:26:55;;;;;;;4.13;3.80;;;;;;;14.25;100.00;96338.06;5052754;27;102016;-63
2022/05/16 00:29:22;;;;;;;4.70;4.30;;;;;;;14.13;100.00;96337.56;5052517;27;104806;-62
2022/05/16 00:31:51;;;;;;;4.57;4.17;;;;;;;14.10;100.00;96328.22;5070568;27;103513;-63
2022/05/16 00:34:18;;;;;;;5.00;4.20;;;;;;;14.17;100.00;96331.38;5051497;27;102443;-62
2022/05/16 00:36:47;;;;;;;4.70;4.27;;;;;;;13.92;100.00;96334.16;5071003;27;101907;-62
2022/05/16 00:39:15;;;;;;;4.93;4.50;;;;;;;13.87;100.00;96330.69;5070742;27;102490;-62
2022/05/16 00:41:49;;;;;;;5.27;4.77;;;;;;;14.08;100.00;96343.75;5074801;27;101886;-62
2022/05/16 00:44:19;;;;;;;6.03;4.30;;;;;;;14.14;100.00;96337.28;5056046;27;105126;-62
2022/05/16 00:47:04;;;;;;;5.00;4.07;;;;;;;14.18;100.00;96342.91;5077200;27;102688;-62
2022/05/16 00:49:36;;;;;;;5.07;4.40;;;;;;;14.15;100.00;96348.78;5074930;27;102214;-62
2022/05/16 00:52:13;;;;;;;4.77;4.30;;;;;;;14.25;100.00;96348.78;5074113;27;102035;-62
2022/05/16 00:54:44;;;;;;;4.93;4.53;;;;;;;14.21;100.00;96347.72;5074313;27;101858;-62
2022/05/16 00:57:16;;;;;;;5.93;4.33;;;;;;;14.19;100.00;96356.03;5074772;27;102264;-62
2022/05/16 00:59:54;;;;;;;4.90;4.40;;;;;;;14.05;100.00;96364.84;5055082;27;105575;-62
2022/05/16 01:05:11;;;;;;;6.53;4.60;;;;;;;13.93;100.00;96369.69;5074745;27;102548;-63
2022/05/16 01:07:41;;;;;;;5.10;4.70;;;;;;;14.13;100.00;96369.66;5073181;27;102590;-62
2022/05/16 01:10:12;;;;;;;5.47;5.00;;;;;;;14.10;100.00;96375.53;5059453;27;101897;-63
2022/05/16 01:12:41;;;;;;;4.60;4.20;;;;;;;14.20;100.00;96367.50;5054772;27;106225;-62
2022/05/16 01:15:26;;;;;;;4.23;3.93;;;;;;;14.13;100.00;96370.47;5055771;27;101919;-62
2022/05/16 01:17:54;;;;;;;4.97;4.07;;;;;;;14.04;100.00;96368.59;5053937;27;102423;-62
2022/05/16 01:20:21;;;;;;;4.27;3.87;;;;;;;14.05;100.00;96365.66;5053330;27;102765;-63
2022/05/16 01:22:53;;;;;;;4.60;4.17;;;;;;;14.07;100.00;96373.41;5053859;27;101685;-62
2022/05/16 01:25:23;;;;;;;5.87;4.87;;;;;;;14.09;100.00;96379.28;5054024;27;102389;-62
2022/05/16 01:27:53;;;;;;;4.80;4.40;;;;;;;14.12;100.00;96376.88;5055200;27;106467;-63
2022/05/16 01:30:23;;;;;;;5.13;4.57;;;;;;;14.01;100.00;96377.19;5077097;27;101872;-62
2022/05/16 01:32:50;;;;;;;4.90;4.50;;;;;;;14.00;100.00;96378.25;5053247;27;103222;-63
2022/05/16 01:35:20;;;;;;;5.57;4.80;;;;;;;13.90;100.00;96380.94;5062432;27;101844;-63
2022/05/16 01:41:08;;;;;;;5.83;5.33;;;;;;;14.01;100.00;96380.63;5054788;27;105962;-63
2022/05/16 01:43:39;;;;;;;5.27;4.87;;;;;;;13.95;100.00;96375.59;5073947;27;101713;-62
2022/05/16 01:46:09;;;;;;;5.43;4.47;;;;;;;13.48;100.00;96375.13;5065284;27;104617;-63
2022/05/16 01:48:37;;;;;;;4.90;4.40;;;;;;;13.38;100.00;96375.94;5052971;27;102921;-62
2022/05/16 01:51:08;;;;;;;4.93;4.53;;;;;;;13.50;100.00;96381.00;5058056;27;101845;-63
2022/05/16 01:53:35;;;;;;;5.03;4.63;;;;;;;13.37;100.00;96386.88;5076140;27;104110;-63
2022/05/16 01:56:03;;;;;;;6.53;5.87;;;;;;;13.30;100.00;96397.06;5072981;27;101887;-63
2022/05/16 01:58:32;;;;;;;6.53;5.77;;;;;;;13.38;100.00;96391.16;5054848;27;103824;-62
2022/05/16 02:01:17;;;;;;;8.10;6.77;;;;;;;13.49;100.00;96395.44;5054506;27;104044;-62
2022/05/16 02:03:49;;;;;;;6.33;5.73;;;;;;;13.61;100.00;96395.94;5054866;27;101842;-62
2022/05/16 02:06:16;;;;;;;6.53;5.90;;;;;;;13.68;100.00;96394.59;5072931;27;102441;-63
2022/05/16 02:08:44;;;;;;;6.40;5.90;;;;;;;13.78;100.00;96391.94;5072527;27;101885;-62
2022/05/16 02:11:15;;;;;;;7.23;6.63;;;;;;;13.87;100.00;96394.84;5073467;27;102023;-63
2022/05/16 02:13:45;;;;;;;6.73;6.10;;;;;;;13.71;100.00;96391.41;5054651;27;104998;-62
2022/05/16 02:16:19;;;;;;;6.10;5.60;;;;;;;13.86;100.00;96387.91;5076011;27;102759;-63
2022/05/16 02:18:46;;;;;;;6.50;5.90;;;;;;;13.93;100.00;96386.56;5054939;27;103603;-63
2022/05/16 02:26:49;;;;;;;5.73;5.03;;;;;;;13.80;100.00;96383.66;5072757;27;102543;-62
2022/05/16 02:29:19;;;;;;;6.13;5.53;;;;;;;13.58;100.00;96385.81;5071316;27;105176;-62
2022/05/16 02:32:06;;;;;;;6.90;5.20;;;;;;;13.37;100.00;96384.22;5054496;27;101870;-62
2022/05/16 02:34:33;;;;;;;5.30;4.80;;;;;;;13.47;100.00;96386.91;5072865;27;102629;-62
2022/05/16 02:37:00;;;;;;;5.73;5.23;;;;;;;13.49;100.00;96392.75;5072262;27;102698;-62
2022/05/16 02:39:27;;;;;;;6.17;5.67;;;;;;;13.58;100.00;96397.28;5057729;27;101844;-63
2022/05/16 02:41:57;;;;;;;6.73;6.03;;;;;;;13.59;100.00;96393.56;5053898;27;105501;-62
2022/05/16 02:44:25;;;;;;;6.80;6.30;;;;;;;13.62;100.00;96397.56;5054076;27;101955;-62
2022/05/16 02:46:56;;;;;;;6.30;5.80;;;;;;;13.61;100.00;96391.41;5053417;27;104801;-62
2022/05/16 02:49:23;;;;;;;5.93;5.43;;;;;;;13.64;100.00;96395.44;5072430;27;103306;-62
2022/05/16 02:51:52;;;;;;;5.80;5.40;;;;;;;13.73;100.00;96399.16;5053946;27;101983;-63
2022/05/16 02:54:19;;;;;;;6.07;5.57;;;;;;;13.73;100.00;96393.81;5071507;27;105068;-62
2022/05/16 02:56:45;;;;;;;5.67;5.27;;;;;;;13.70;100.00;96389.81;5053822;27;105401;-62
2022/05/16 02:59:13;;;;;;;6.70;5.97;;;;;;;13.76;100.00;96393.25;5050516;27;102002;-63
2022/05/16 03:01:55;;;;;;;6.27;5.67;;;;;;;13.76;100.00;96386.06;5039790;27;105785;-63
2022/05/16 03:04:22;;;;;;;5.70;5.20;;;;;;;13.76;100.00;96385.25;5072454;27;101829;-62
2022/05/16 03:06:49;;;;;;;6.27;5.67;;;;;;;13.75;100.00;96386.31;5053799;27;103763;-62
2022/05/16 03:09:16;;;;;;;5.57;5.07;;;;;;;13.78;100.00;96388.44;5053446;27;103867;-63
2022/05/16 03:12:09;;;;;;;5.73;5.23;;;;;;;13.82;100.00;96387.66;5072201;27;102443;-62
2022/05/16 03:14:36;;;;;;;6.67;5.97;;;;;;;13.78;100.00;96383.91;5071885;27;103128;-62
2022/05/16 03:17:06;;;;;;;6.40;5.80;;;;;;;13.78;100.00;96385.78;5052975;27;105459;-62
2022/05/16 03:19:35;;;;;;;6.80;6.20;;;;;;;13.76;100.00;96394.06;5072156;27;101974;-63
2022/05/16 03:22:09;;;;;;;7.97;6.37;;;;;;;13.85;100.00;96391.66;5072060;27;102336;-62
2022/05/16 03:24:37;;;;;;;6.50;5.97;;;;;;;13.90;100.00;96386.31;5074638;27;102811;-62
2022/05/16 03:27:05;;;;;;;6.67;6.13;;;;;;;13.97;100.00;96387.63;5071964;27;102450;-63
2022/05/16 03:29:32;;;;;;;6.17;5.63;;;;;;;13.99;100.00;96393.50;5071497;27;102768;-63
2022/05/16 03:32:01;;;;;;;6.63;6.03;;;;;;;14.04;100.00;96384.66;5053140;27;102194;-63
2022/05/16 03:34:29;;;;;;;6.83;6.00;;;;;;;13.99;100.00;96379.31;5069835;27;102324;-62
2022/05/16 03:36:56;;;;;;;5.87;5.37;;;;;;;14.08;100.00;96383.03;5052600;27;103993;-63
2022/05/16 03:42:12;;;;;;;5.70;5.30;;;;;;;14.03;100.00;96391.88;5071761;27;102889;-62
2022/05/16 03:44:40;;;;;;;6.67;6.00;;;;;;;14.07;100.00;96400.16;5074871;27;102655;-62
2022/05/16 03:47:07;;;;;;;6.63;6.00;;;;;;;14.12;100.00;96392.91;5053453;27;102952;-62
2022/05/16 03:49:36;;;;;;;6.80;6.20;;;;;;;14.01;100.00;96386.00;5071452;27;102580;-63
2022/05/16 03:55:29;;;;;;;7.20;6.50;;;;;;;14.16;100.00;96395.84;5053343;27;105578;-62
2022/05/16 03:57:57;;;;;;;6.97;6.37;;;;;;;14.22;100.00;96390.25;5052452;27;103844;-62
2022/05/16 04:00:24;;;;;;;7.00;6.40;;;;;;;14.22;100.00;96392.13;5052762;27;101826;-62
2022/05/16 04:02:51;;;;;;;6.77;6.10;;;;;;;14.29;100.00;96387.28;5053457;27;104761;-62
2022/05/16 04:05:23;;;;;;;7.67;6.97;;;;;;;14.20;100.00;96389.72;5052157;27;105026;-62
2022/05/16 04:07:51;;;;;;;7.27;6.43;;;;;;;14.32;100.00;96384.84;5056286;27;102019;-62
2022/05/16 04:10:19;;;;;;;8.10;7.13;;;;;;;14.32;100.00;96392.06;5052424;27;105391;-62
2022/05/16 04:12:46;;;;;;;7.30;6.60;;;;;;;14.26;100.00;96388.63;5071526;27;103450;-63
2022/05/16 04:15:15;;;;;;;7.30;6.60;;;;;;;14.47;100.00;96394.69;5052038;27;105565;-62
2022/05/16 04:17:42;;;;;;;7.57;6.30;;;;;;;14.44;100.00;96384.56;5052208;27;105264;-62
2022/05/16 04:20:58;;;;;;;6.47;5.97;;;;;;;14.48;100.00;96391.75;5071003;27;102652;-62
2022/05/16 04:23:27;;;;;;;6.73;6.13;;;;;;;14.58;100.00;96382.88;5052374;27;105307;-62
2022/05/16 04:25:54;;;;;;;6.63;6.13;;;;;;;14.59;100.00;96387.13;5052486;27;105200;-63
2022/05/16 04:28:21;;;;;;;6.87;6.00;;;;;;;14.63;100.00;96389.00;5052628;27;101996;-63
2022/05/16 04:34:10;;;;;;;6.87;6.17;;;;;;;14.77;100.00;96383.84;5071278;27;101772;-62
2022/05/16 04:36:39;;;;;;;6.97;6.37;;;;;;;14.79;100.00;96389.72;5052818;27;104784;-62
2022/05/16 04:39:07;;;;;;;6.33;5.83;;;;;;;14.81;100.00;96395.59;5051764;27;105812;-62
2022/05/16 04:44:19;;;;;;;6.20;5.60;;;;;;;14.92;100.00;96410.50;5034706;27;105872;-62
2022/05/16 04:47:03;;;;;;;6.27;5.67;;;;;;;15.01;100.00;96411.53;5048742;27;104117;-62
2022/05/16 04:49:30;;;;;;;6.17;5.60;;;;;;;15.09;100.00;96421.69;5071316;27;101698;-62
2022/05/16 04:51:58;;;;;;;6.17;5.37;;;;;;;15.19;100.00;96418.91;5052606;27;103610;-62
2022/05/16 04:54:28;;;;;;;6.17;5.67;;;;;;;15.31;100.00;96411.34;5055321;27;105361;-63
2022/05/16 04:56:55;;;;;;;6.00;5.50;;;;;;;15.39;100.00;96408.91;5070974;27;103150;-62
2022/05/16 04:59:23;;;;;;;6.10;5.70;;;;;;;15.40;100.00;96409.69;5051741;27;103945;-62
2022/05/16 05:02:19;;;;;;;6.60;6.00;;;;;;;15.50;100.00;96409.63;5070746;27;101886;-62
2022/05/16 05:04:48;;;;;;;6.27;5.67;;;;;;;15.64;100.00;96408.69;5070737;27;102847;-63
2022/05/16 05:07:16;;;;;;;6.67;6.07;;;;;;;15.63;100.00;96417.00;5069915;27;102553;-62
2022/05/16 05:15:39;;;;;;;5.97;5.47;;;;;;;15.96;100.00;96414.28;5069859;27;102837;-63
2022/05/16 05:18:07;;;;;;;5.80;5.23;;;;;;;16.32;100.00;96422.78;5074151;27;101821;-63
2022/05/16 05:20:36;;;;;;;5.77;5.27;;;;;;;16.47;100.00;96415.38;5069807;27;102871;-63
2022/05/16 05:23:05;;;;;;;6.17;5.50;;;;;;;16.67;100.00;96414.34;5070662;27;102009;-63
2022/05/16 05:25:34;;;;;;;6.13;5.60;;;;;;;16.98;100.00;96416.34;5070618;27;102301;-63
2022/05/16 05:28:03;;;;;;;5.87;4.97;;;;;;;17.23;100.00;96409.81;5054922;27;103880;-63
2022/05/16 05:30:33;;;;;;;7.70;5.77;;;;;;;17.27;100.00;96408.16;5055068;27;102013;-63
2022/05/16 05:33:00;;;;;;;6.00;5.50;;;;;;;16.83;100.00;96407.66;5065495;27;102902;-63
2022/05/16 05:35:29;;;;;;;7.17;5.97;;;;;;;16.74;100.00;96417.47;5073234;27;103087;-64
2022/05/16 05:37:56;;;;;;;6.00;5.37;;;;;;;17.08;100.00;96426.16;5055277;27;102039;-64
2022/05/16 05:40:34;;;;;;;7.23;5.60;;;;;;;16.91;100.00;96434.72;5058389;27;103491;-64
2022/05/16 05:43:04;;;;;;;8.60;6.10;;;;;;;16.93;100.00;96423.66;5073781;27;101994;-64
2022/05/16 05:45:37;;;;;;;6.83;6.10;;;;;;;16.93;100.00;96419.09;5073511;27;103297;-64
2022/05/16 05:48:05;;;;;;;7.57;5.83;;;;;;;17.00;100.00;96419.53;5054833;27;105412;-64
2022/05/16 05:51:15;;;;;;;7.73;5.23;;;;;;;17.18;100.00;96416.06;5073120;27;102453;-65
2022/05/16 05:53:42;;;;;;;7.30;5.27;;;;;;;17.30;100.00;96419.13;5073611;27;104547;-63
2022/05/16 05:56:12;;;;;;;6.93;5.60;;;;;;;17.54;100.00;96427.13;5072727;27;102621;-63
2022/05/16 05:58:39;;;;;;;6.10;5.50;;;;;;;17.31;100.00;96426.09;5073592;27;101978;-62
2022/05/16 06:01:08;;;;;;;5.63;5.13;;;;;;;17.51;100.00;96419.63;5036166;27;106121;-63
2022/05/16 06:03:35;;;;;;;7.67;5.07;;;;;;;17.80;100.00;96422.91;5034969;27;101839;-63
2022/05/16 06:06:02;;;;;;;6.80;5.33;;;;;;;17.81;100.00;96421.81;5051578;27;105038;-63
2022/05/16 06:08:30;;;;;;;9.33;5.67;;;;;;;17.77;100.00;96420.81;5052489;27;102635;-63
2022/05/16 06:11:00;;;;;;;6.83;6.07;;;;;;;17.75;100.00;96425.66;5072053;27;102139;-63
2022/05/16 06:13:29;;;;;;;7.97;5.17;;;;;;;18.03;100.00;96425.47;5054658;27;105192;-62
2022/05/16 06:16:08;;;;;;;8.23;5.80;;;;;;;18.13;100.00;96422.59;5072549;27;102731;-63
2022/05/16 06:18:35;;;;;;;6.57;5.57;;;;;;;18.21;100.00;96418.41;5073258;27;101900;-64
2022/05/16 06:21:02;;;;;;;6.40;5.80;;;;;;;18.48;100.00;96424.63;5073194;27;102258;-63
2022/05/16 06:23:29;;;;;;;5.87;4.90;;;;;;;18.75;100.00;96418.47;5075733;27;104760;-63
2022/05/16 06:25:58;;;;;;;6.67;5.97;;;;;;;18.83;100.00;96431.22;5073296;27;102540;-63
2022/05/16 06:28:26;;;;;;;7.60;5.80;;;;;;;18.80;100.00;96418.38;5054183;27;103953;-63
2022/05/16 06:31:07;;;;;;;7.23;6.10;;;;;;;18.99;100.00;96424.41;5072967;27;101906;-63
2022/05/16 06:33:35;;;;;;;8.67;5.70;;;;;;;19.12;100.00;96429.00;5073397;27;102381;-63
2022/05/16 06:36:03;;;;;;;6.33;5.70;;;;;;;19.04;100.00;96433.19;5072566;27;103175;-62
2022/05/16 06:38:32;;;;;;;6.87;5.93;;;;;;;19.09;100.00;96434.97;5072735;27;103317;-64
2022/05/16 06:41:00;;;;;;;9.20;5.90;;;;;;;19.13;100.00;96430.59;5072816;27;101908;-64
2022/05/16 06:43:29;;;;;;;7.30;5.80;;;;;;;19.13;100.00;96438.69;5053613;27;106865;-65
2022/05/16 06:46:02;;;;;;;7.17;5.63;;;;;;;19.22;100.00;96434.16;5076014;27;101920;-64
2022/05/16 06:48:31;;;;;;;6.73;5.70;;;;;;;19.51;100.00;96437.31;5072689;27;102879;-64
2022/05/16 06:54:20;;;;;;;7.97;5.97;;;;;;;19.91;100.00;96430.91;5054191;27;105872;-63
2022/05/16 06:56:47;;;;;;;7.40;5.93;;;;;;;20.16;100.00;96433.81;5072185;27;102712;-64
2022/05/16 06:59:14;;;;;;;10.93;6.00;;;;;;;20.51;100.00;96437.47;5054326;27;101887;-63
2022/05/16 07:01:41;;;;;;;6.93;5.67;;;;;;;20.58;100.00;96429.69;5071052;27;103339;-63
2022/05/16 07:04:10;;;;;;;6.23;5.47;;;;;;;20.58;100.00;96437.81;5071938;27;102624;-63
2022/05/16 07:06:37;;;;;;;6.63;5.03;;;;;;;20.55;100.00;96433.03;5071774;27;101919;-63
2022/05/16 07:09:04;;;;;;;7.67;5.07;;;;;;;20.71;100.00;96423.41;5075245;27;102543;-63
2022/05/16 07:11:45;;;;;;;5.70;5.13;;;;;;;21.03;100.00;96425.75;5053719;27;101891;-64
2022/05/16 07:14:12;;;;;;;5.77;4.70;;;;;;;21.47;100.00;96434.38;5072600;27;102240;-64
2022/05/16 07:16:51;;;;;;;5.03;4.27;;;;;;;21.11;100.00;96439.28;5052940;27;104746;-62
2022/05/16 07:19:20;;;;;;;4.57;4.17;;;;;;;20.80;100.00;96448.53;5053820;27;102378;-64
2022/05/16 07:21:48;;;;;;;4.73;4.07;;;;;;;20.66;100.00;96443.25;5072232;27;102372;-63
2022/05/16 07:24:15;;;;;;;5.57;5.07;;;;;;;20.76;100.00;96450.28;5070092;27;102991;-63
2022/05/16 07:29:26;;;;;;;4.97;4.57;;;;;;;21.42;100.00;96455.41;5053589;27;105509;-63
2022/05/16 07:31:56;;;;;;;5.37;4.30;;;;;;;21.41;100.00;96443.78;5056238;27;106000;-63
2022/05/16 07:34:24;;;;;;;8.10;4.60;;;;;;;21.66;100.00;96447.59;5072066;27;102604;-63
2022/05/16 07:36:51;;;;;;;6.97;4.57;;;;;;;21.71;100.00;96447.47;5071218;27;104339;-63
2022/05/16 07:39:18;;;;;;;8.83;4.60;;;;;;;22.47;100.00;96452.00;5053449;27;102019;-63
2022/05/16 07:42:11;;;;;;;8.60;4.57;;;;;;;22.59;100.00;96452.09;5071694;27;102409;-63
2022/05/16 07:44:43;;;;;;;6.73;4.70;;;;;;;23.08;100.00;96459.53;5057194;27;103053;-65
2022/05/16 07:47:10;;;;;;;7.83;4.47;;;;;;;22.61;100.00;96449.88;5055176;27;102001;-64
2022/05/16 07:49:43;;;;;;;8.73;4.57;;;;;;;22.89;100.00;96464.59;5058336;27;103249;-64
2022/05/16 07:52:17;;;;;;;5.97;4.50;;;;;;;23.54;100.00;96467.59;5048717;27;103839;-64
2022/05/16 07:54:44;;;;;;;6.80;4.20;;;;;;;23.64;100.00;96467.97;5075030;27;101759;-64
2022/05/16 07:57:12;;;;;;;8.67;4.37;;;;;;;23.30;100.00;96475.56;5070773;27;102987;-65
2022/05/16 07:59:41;;;;;;;4.87;4.10;;;;;;;23.11;100.00;96477.88;5052800;27;102388;-65
2022/05/16 08:02:09;;;;;;;7.60;4.37;;;;;;;22.88;100.00;96473.84;5048703;27;103809;-65
2022/05/16 08:04:36;;;;;;;7.97;4.80;;;;;;;22.33;100.00;96481.16;5070745;27;102570;-65
2022/05/16 08:07:05;;;;;;;5.60;4.87;;;;;;;22.18;100.00;96482.47;5052555;27;101739;-63
2022/05/16 08:12:37;;;;;;;5.50;5.00;;;;;;;22.61;100.00;96488.63;5071015;27;103069;-64
2022/05/16 08:15:07;;;;;;;6.17;4.73;;;;;;;22.62;100.00;96486.72;5074751;27;101952;-64
2022/05/16 08:17:34;;;;;;;7.10;4.73;;;;;;;22.56;100.00;96493.44;5070701;27;102950;-65
2022/05/16 08:20:04;;;;;;;6.90;4.77;;;;;;;22.19;100.00;96496.81;5052639;27;101968;-64
2022/05/16 08:22:36;;;;;;;7.87;5.73;;;;;;;22.27;100.00;96501.41;5052853;27;105738;-64
2022/05/16 08:25:03;;;;;;;5.63;4.90;;;;;;;22.70;100.00;96508.38;5050718;27;105733;-64
2022/05/16 08:27:30;;;;;;;6.07;5.10;;;;;;;23.00;100.00;96511.94;5050717;27;102227;-64
2022/05/16 08:29:57;;;;;;;7.20;5.07;;;;;;;23.08;100.00;96513.78;5052304;27;104793;-64
2022/05/16 08:32:25;;;;;;;6.67;4.37;;;;;;;23.19;100.00;96520.47;5050011;27;102721;-64
2022/05/16 08:34:52;;;;;;;5.83;5.27;;;;;;;23.30;100.00;96521.69;5050785;27;102000;-64
2022/05/16 08:40:06;;;;;;;7.00;5.47;;;;;;;22.77;100.00;96532.28;5071108;27;101734;-65
2022/05/16 08:42:47;;;;;;;5.47;4.97;;;;;;;23.06;100.00;96537.75;5070830;27;103306;-63
2022/05/16 08:45:54;;;;;;;6.03;5.37;;;;;;;22.76;100.00;96544.22;5070163;27;104203;-63
2022/05/16 08:48:26;;;;;;;8.27;6.00;;;;;;;22.86;100.00;96552.81;5067949;27;102198;-64
2022/05/16 08:51:44;;;;;;;7.07;5.00;;;;;;;23.02;100.00;96553.06;5070912;27;102440;-64
2022/05/16 08:54:18;;;;;;;5.97;5.13;;;;;;;22.95;100.00;96563.63;5070216;27;102106;-64
2022/05/16 08:56:47;;;;;;;8.17;5.07;;;;;;;22.73;100.00;96561.16;5052424;27;101831;-65
2022/05/16 08:59:19;;;;;;;7.73;5.33;;;;;;;22.74;100.00;96565.44;5052276;27;104171;-64
2022/05/16 09:01:52;;;;;;;6.00;5.30;;;;;;;23.08;100.00;96551.78;5057524;27;103877;-64
2022/05/16 09:04:25;;;;;;;5.37;4.87;;;;;;;23.35;100.00;96570.34;5055591;27;105838;-67
2022/05/16 09:07:02;;;;;;;4.63;4.20;;;;;;;24.29;100.00;96571.34;5073027;27;104128;-67
2022/05/16 09:09:44;;;;;;;5.00;3.70;;;;;;;24.59;100.00;96580.25;5074444;27;101768;-66
2022/05/16 09:12:31;;;;;;;4.83;3.63;;;;;;;24.43;100.00;96579.22;5074511;27;102390;-65
2022/05/16 09:15:20;;;;;;;2.70;2.20;;;;;;;23.42;100.00;96590.44;5053241;27;102693;-66
2022/05/16 09:18:02;;;;;;;2.33;1.83;;;;;;;23.72;100.00;96596.69;5053588;27;101963;-64
2022/05/16 09:23:58;;;;;;;2.53;2.30;;;;;;;23.96;100.00;96597.66;5052598;27;103141;-64
2022/05/16 09:26:48;;;;;;;5.67;2.53;;;;;;;24.20;94.65;96603.22;5057185;27;101760;-64
2022/05/16 09:29:24;;;;;;;4.07;2.40;;;;;;;24.62;98.44;96620.38;5037378;27;103859;-64
2022/05/16 09:32:03;;;;;;;2.20;2.10;;;;;;;23.77;98.66;96599.97;5064496;27;101752;-65
2022/05/16 09:34:31;;;;;;;2.70;2.50;;;;;;;24.05;100.00;96605.75;5072566;27;104051;-65
2022/05/16 09:36:57;;;;;;;2.67;2.20;;;;;;;23.99;100.00;96624.19;5054747;27;105567;-64
2022/05/16 09:39:31;;;;;;;5.20;2.20;;;;;;;23.93;100.00;96611.91;5073777;27;101853;-64
2022/05/16 09:42:12;;;;;;;2.97;2.33;;;;;;;23.79;100.00;96619.47;5073851;27;102300;-64
2022/05/16 09:44:45;;;;;;;4.40;2.23;;;;;;;23.49;100.00;96617.09;5073222;27;101987;-64
2022/05/16 09:47:35;;;;;;;3.40;1.80;;;;;;;23.44;95.20;96609.13;5073854;27;102060;-64
2022/05/16 09:50:20;;;;;;;2.33;1.60;;;;;;;23.52;90.03;96630.00;5076514;27;103086;-64
2022/05/16 09:52:51;;;;;;;2.00;1.80;;;;;;;23.63;93.71;96612.22;5073740;27;101883;-65
2022/05/16 09:55:28;;;;;;;1.83;1.63;;;;;;;23.98;89.98;96622.56;5073781;27;102326;-64
2022/05/16 09:57:59;;;;;;;2.27;1.60;;;;;;;23.52;89.74;96647.09;5072939;27;102643;-65
2022/05/16 10:00:57;;;;;;;2.77;1.80;;;;;;;23.25;95.14;96628.53;5073573;27;101837;-65
2022/05/16 10:03:30;;;;;;;2.00;1.90;;;;;;;23.83;95.14;96619.63;5055131;27;105089;-66
2022/05/16 10:05:59;;;;;;;1.93;1.70;;;;;;;24.09;89.82;96625.72;5072653;27;102493;-65
2022/05/16 10:08:30;;;;;;;3.50;1.90;;;;;;;23.84;91.77;96632.06;5054667;27;102034;-65
2022/05/16 10:11:02;;;;;;;1.77;1.50;;;;;;;24.07;88.50;96644.25;5073380;27;101762;-66
2022/05/16 10:13:29;;;;;;;3.90;1.80;;;;;;;23.99;93.68;96639.69;5075162;27;101676;-65
2022/05/16 10:16:04;;;;;;;2.57;1.50;;;;;;;24.23;87.07;96637.94;5054634;27;105636;-65
2022/05/16 10:18:35;;;;;;;1.50;1.40;;;;;;;24.05;86.53;96646.53;5054116;27;105793;-66
2022/05/16 10:21:09;;;;;;;1.40;1.30;;;;;;;24.32;76.99;96630.50;5073261;27;102215;-65
2022/05/16 10:23:39;;;;;;;1.57;1.47;;;;;;;24.12;81.13;96641.34;5071523;27;105508;-65
2022/05/16 10:26:09;;;;;;;2.77;1.50;;;;;;;24.01;86.13;96629.28;5054043;27;104198;-65
2022/05/16 10:28:40;;;;;;;1.70;1.60;;;;;;;24.12;92.08;96616.88;5073488;27;101696;-65
2022/05/16 10:34:27;;;;;;;3.10;2.03;;;;;;;23.60;100.00;96629.19;5075927;27;103473;-65
2022/05/16 10:36:57;;;;;;;2.60;1.80;;;;;;;23.78;100.00;96633.38;5054704;27;105226;-66
2022/05/16 10:39:27;;;;;;;2.77;2.10;;;;;;;23.52;97.04;96640.84;5072265;27;102974;-65
2022/05/16 10:42:16;;;;;;;2.23;1.80;;;;;;;23.53;100.00;96634.31;5054619;27;101867;-65
2022/05/16 10:44:58;;;;;;;2.23;1.90;;;;;;;23.58;96.62;96637.63;5054623;27;106393;-65
2022/05/16 10:47:31;;;;;;;2.67;1.70;;;;;;;23.03;100.00;96655.84;5072283;27;102846;-65
2022/05/16 10:50:06;;;;;;;3.70;1.40;;;;;;;22.96;99.16;96663.69;5054306;27;102063;-65
2022/05/16 10:52:38;;;;;;;3.43;1.50;;;;;;;22.53;100.00;96653.97;5071496;27;104971;-65
2022/05/16 10:55:06;;;;;;;1.70;1.60;;;;;;;22.60;100.00;96654.28;5072246;27;102786;-65
2022/05/16 10:57:51;;;;;;;2.00;1.80;;;;;;;22.51;100.00;96651.59;5075878;27;101942;-65
2022/05/16 11:00:45;;;;;;;2.07;1.50;;;;;;;22.70;100.00;96640.41;5053687;27;105473;-66
2022/05/16 11:03:48;;;;;;;3.70;1.73;;;;;;;22.85;100.00;96640.72;5054250;27;101833;-64
2022/05/16 11:07:02;;;;;;;1.90;1.63;;;;;;;22.63;100.00;96642.81;5049287;27;102890;-66
2022/05/16 11:09:39;;;;;;;3.47;1.40;;;;;;;22.87;100.00;96641.19;4972213;28;104298;-65
2022/05/16 11:12:18;;;;;;;1.63;1.53;;;;;;;23.17;100.00;96642.09;5049753;27;101882;-65
2022/05/16 11:15:00;;;;;;;1.80;1.70;;;;;;;23.19;100.00;96645.28;5072624;27;102357;-65
2022/05/16 11:17:33;;;;;;;2.33;1.80;;;;;;;22.91;100.00;96638.63;5071694;27;102056;-65
2022/05/16 11:20:08;;;;;;;3.03;1.90;;;;;;;22.65;100.00;96635.97;5072397;27;101707;-65
2022/05/16 11:22:40;;;;;;;1.93;1.83;;;;;;;22.80;100.00;96634.66;5056418;27;103626;-65
2022/05/16 11:25:13;;;;;;;2.33;2.13;;;;;;;23.00;100.00;96628.56;5071820;27;101800;-65
2022/05/16 11:27:57;;;;;;;3.37;1.90;;;;;;;23.25;100.00;96630.44;5072251;27;103341;-65
2022/05/16 11:31:11;;;;;;;1.90;1.80;;;;;;;22.90;100.00;96626.19;5052650;27;105890;-65
2022/05/16 11:33:48;;;;;;;3.63;2.00;;;;;;;22.62;100.00;96627.69;5071900;27;101865;-65
2022/05/16 11:36:24;;;;;;;2.40;2.10;;;;;;;22.43;100.00;96627.97;5072465;27;102950;-65
2022/05/16 11:39:04;;;;;;;2.00;1.90;;;;;;;22.34;100.00;96635.31;5071457;27;102589;-65
2022/05/16 11:42:21;;;;;;;2.07;1.87;;;;;;;22.73;100.00;96627.00;5053279;27;103040;-65
2022/05/16 11:48:28;;;;;;;3.47;1.90;;;;;;;22.59;100.00;96620.97;5072764;27;105811;-65
2022/05/16 11:51:13;;;;;;;2.70;1.90;;;;;;;22.18;100.00;96614.44;5070522;27;102392;-66
2022/05/16 11:53:49;;;;;;;2.80;2.13;;;;;;;22.55;100.00;96616.53;5071314;27;102703;-65
2022/05/16 12:02:36;;;;;;;1.80;1.60;;;;;;;22.16;100.00;96609.31;5052402;27;105795;-66
2022/05/16 12:05:09;;;;;;;1.93;1.70;;;;;;;22.05;100.00;96589.09;5071870;27;101754;-66
2022/05/16 12:07:42;;;;;;;1.80;1.70;;;;;;;21.67;100.00;96589.94;5051593;27;102972;-66
2022/05/16 12:10:24;;;;;;;1.90;1.60;;;;;;;21.31;100.00;96594.78;5039180;27;103766;-66
2022/05/16 12:13:18;;;;;;;2.23;1.60;;;;;;;21.16;100.00;96597.91;5055007;27;101708;-66
2022/05/16 12:16:16;;;;;;;2.13;1.80;;;;;;;21.34;100.00;96581.44;5050579;27;102725;-66
2022/05/16 12:18:45;;;;;;;1.60;1.50;;;;;;;21.34;100.00;96569.81;4998169;27;102015;-66
2022/05/16 12:21:23;;;;;;;1.97;1.87;;;;;;;21.45;100.00;96576.53;5057449;27;102324;-66
2022/05/16 12:24:00;;;;;;;1.90;1.80;;;;;;;21.64;100.00;96568.94;5068962;27;103977;-66
2022/05/16 12:26:49;;;;;;;2.30;1.90;;;;;;;21.90;100.00;96556.28;5071222;27;102182;-66
2022/05/16 12:29:20;;;;;;;2.30;1.70;;;;;;;22.13;100.00;96552.28;5036252;27;106503;-66
2022/05/16 12:31:54;;;;;;;2.33;1.93;;;;;;;22.26;100.00;96551.31;5070643;27;102601;-67
2022/05/16 12:34:44;;;;;;;2.77;1.90;;;;;;;22.36;100.00;96542.84;5056182;27;101830;-67
2022/05/16 12:37:15;;;;;;;2.47;1.73;;;;;;;22.35;100.00;96536.63;5065344;27;103061;-64
2022/05/16 12:39:58;;;;;;;1.63;1.33;;;;;;;22.27;100.00;96542.06;5071252;27;101810;-66
2022/05/16 12:42:50;;;;;;;2.43;1.70;;;;;;;22.22;100.00;96540.31;5071037;27;102607;-66